Time,TemperatureF,DewpointF,PressureIn,WindDirection,WindDirectionDegrees,WindSpeedMPH,WindSpeedGustMPH,Humidity,HourlyPrecipIn,Conditions,Clouds,dailyrainin,SoftwareType,DateUTC
2014-09-01 00:05:00,48.7,42.1,30.07,NW,318,1.0,2.0,78,0.00,,,0.00,Wunderground v.1.15,2014-09-01 07:05:00,
2014-09-01 00:11:00,48.7,42.8,30.07,NW,318,0.0,2.0,80,0.00,,,0.00,Wunderground v.1.15,2014-09-01 07:11:00,
2014-09-01 00:17:00,48.6,42.7,30.07,NW,318,0.0,2.0,80,0.00,,,0.00,Wunderground v.1.15,2014-09-01 07:17:00,
2014-09-01 00:23:00,48.5,42.6,30.07,West,266,0.0,2.0,80,0.00,,,0.00,Wunderground v.1.15,2014-09-01 07:23:00,
2014-09-01 00:29:00,48.2,42.6,30.07,West,266,0.0,2.0,81,0.00,,,0.00,Wunderground v.1.15,2014-09-01 07:29:00,
2014-09-01 00:35:00,48.0,42.4,30.07,West,267,0.0,2.0,81,0.00,,,0.00,Wunderground v.1.15,2014-09-01 07:35:00,
2014-09-01 00:40:00,47.8,42.6,30.07,West,267,0.0,2.0,82,0.00,,,0.00,Wunderground v.1.15,2014-09-01 07:40:00,
2014-09-01 00:46:00,47.7,42.5,30.07,West,267,0.0,2.0,82,0.00,,,0.00,Wunderground v.1.15,2014-09-01 07:46:00,
2014-09-01 00:52:00,47.6,42.1,30.07,West,269,0.0,2.0,81,0.00,,,0.00,Wunderground v.1.15,2014-09-01 07:52:00,
2014-09-01 00:58:00,47.1,41.9,30.07,West,269,0.0,2.0,82,0.00,,,0.00,Wunderground v.1.15,2014-09-01 07:58:00,
2014-09-01 01:04:00,46.8,41.6,30.08,WSW,238,0.0,2.0,82,0.00,,,0.00,Wunderground v.1.15,2014-09-01 08:04:00,
2014-09-01 01:10:00,46.7,41.5,30.08,SSW,204,0.0,2.0,82,0.00,,,0.00,Wunderground v.1.15,2014-09-01 08:10:00,
2014-09-01 01:16:00,46.5,41.6,30.08,SSW,204,0.0,2.0,83,0.00,,,0.00,Wunderground v.1.15,2014-09-01 08:16:00,
2014-09-01 01:22:00,46.5,41.6,30.08,SE,139,0.0,2.0,83,0.00,,,0.00,Wunderground v.1.15,2014-09-01 08:22:00,
2014-09-01 01:27:00,46.3,41.4,30.08,SE,139,0.0,2.0,83,0.00,,,0.00,Wunderground v.1.15,2014-09-01 08:27:00,
2014-09-01 01:33:00,46.4,41.5,30.08,SE,139,0.0,2.0,83,0.00,,,0.00,Wunderground v.1.15,2014-09-01 08:33:00,
2014-09-01 01:39:00,46.2,41.3,30.08,SE,139,0.0,2.0,83,0.00,,,0.00,Wunderground v.1.15,2014-09-01 08:39:00,
2014-09-01 01:45:00,46.3,40.8,30.08,SE,139,0.0,2.0,81,0.00,,,0.00,Wunderground v.1.15,2014-09-01 08:45:00,
2014-09-01 01:50:00,46.1,40.9,30.08,SE,139,0.0,2.0,82,0.00,,,0.00,Wunderground v.1.15,2014-09-01 08:50:00,
2014-09-01 01:56:00,46.4,40.9,30.08,East,85,0.0,2.0,81,0.00,,,0.00,Wunderground v.1.15,2014-09-01 08:56:00,
2014-09-01 02:02:00,46.6,40.8,30.08,East,85,0.0,2.0,80,0.00,,,0.00,Wunderground v.1.15,2014-09-01 09:02:00,
2014-09-01 02:08:00,46.2,40.4,30.08,East,85,0.0,2.0,80,0.00,,,0.00,Wunderground v.1.15,2014-09-01 09:08:00,
2014-09-01 02:14:00,46.2,40.7,30.08,North,9,0.0,2.0,81,0.00,,,0.00,Wunderground v.1.15,2014-09-01 09:14:00,
2014-09-01 02:20:00,46.3,40.1,30.08,NNW,340,0.0,2.0,79,0.00,,,0.00,Wunderground v.1.15,2014-09-01 09:20:00,
2014-09-01 02:26:00,46.1,39.6,30.08,NNW,340,0.0,2.0,78,0.00,,,0.00,Wunderground v.1.15,2014-09-01 09:26:00,
2014-09-01 02:31:00,45.5,39.7,30.08,SE,141,0.0,2.0,80,0.00,,,0.00,Wunderground v.1.15,2014-09-01 09:31:00,
2014-09-01 02:37:00,45.0,39.5,30.08,SE,141,0.0,2.0,81,0.00,,,0.00,Wunderground v.1.15,2014-09-01 09:37:00,
2014-09-01 02:43:00,45.1,39.0,30.08,SE,141,0.0,2.0,79,0.00,,,0.00,Wunderground v.1.15,2014-09-01 09:43:00,
2014-09-01 02:49:00,45.2,39.1,30.08,SE,141,0.0,2.0,79,0.00,,,0.00,Wunderground v.1.15,2014-09-01 09:49:00,
2014-09-01 02:54:00,44.8,39.3,30.08,SE,141,0.0,2.0,81,0.00,,,0.00,Wunderground v.1.15,2014-09-01 09:54:00,
2014-09-01 03:00:00,44.0,38.9,30.08,SE,141,0.0,2.0,82,0.00,,,0.00,Wunderground v.1.15,2014-09-01 10:00:00,
2014-09-01 03:06:00,43.4,38.9,30.08,SE,141,0.0,2.0,84,0.00,,,0.00,Wunderground v.1.15,2014-09-01 10:06:00,
2014-09-01 03:12:00,43.1,38.9,30.08,SE,141,0.0,2.0,85,0.00,,,0.00,Wunderground v.1.15,2014-09-01 10:12:00,
2014-09-01 03:18:00,42.6,38.7,30.08,SSE,149,0.0,2.0,86,0.00,,,0.00,Wunderground v.1.15,2014-09-01 10:18:00,
2014-09-01 03:24:00,42.0,38.1,30.08,SSE,149,0.0,2.0,86,0.00,,,0.00,Wunderground v.1.15,2014-09-01 10:24:00,
2014-09-01 03:30:00,41.4,38.1,30.09,SSE,149,0.0,2.0,88,0.00,,,0.00,Wunderground v.1.15,2014-09-01 10:30:00,
2014-09-01 03:35:00,41.1,38.1,30.09,SSE,149,0.0,2.0,89,0.00,,,0.00,Wunderground v.1.15,2014-09-01 10:35:00,
2014-09-01 03:41:00,41.0,38.3,30.09,SSE,149,0.0,2.0,90,0.00,,,0.00,Wunderground v.1.15,2014-09-01 10:41:00,
2014-09-01 03:47:00,41.1,38.7,30.08,SSE,149,0.0,2.0,91,0.00,,,0.00,Wunderground v.1.15,2014-09-01 10:47:00,
2014-09-01 03:53:00,40.8,38.1,30.09,SSE,149,0.0,2.0,90,0.00,,,0.00,Wunderground v.1.15,2014-09-01 10:53:00,
2014-09-01 03:58:00,40.3,37.6,30.09,SSE,149,0.0,2.0,90,0.00,,,0.00,Wunderground v.1.15,2014-09-01 10:58:00,
2014-09-01 04:04:00,40.2,37.8,30.09,WSW,238,0.0,2.0,91,0.00,,,0.00,Wunderground v.1.15,2014-09-01 11:04:00,
2014-09-01 04:10:00,40.0,37.6,30.09,WSW,238,0.0,2.0,91,0.00,,,0.00,Wunderground v.1.15,2014-09-01 11:10:00,
2014-09-01 04:16:00,39.7,37.6,30.09,WSW,238,0.0,2.0,92,0.00,,,0.00,Wunderground v.1.15,2014-09-01 11:16:00,
2014-09-01 04:22:00,39.6,37.5,30.09,WSW,238,0.0,2.0,92,0.00,,,0.00,Wunderground v.1.15,2014-09-01 11:22:00,
2014-09-01 04:28:00,39.8,37.9,30.09,WSW,238,0.0,2.0,93,0.00,,,0.00,Wunderground v.1.15,2014-09-01 11:28:00,
2014-09-01 04:34:00,40.2,38.3,30.09,WSW,238,0.0,2.0,93,0.00,,,0.00,Wunderground v.1.15,2014-09-01 11:34:00,
2014-09-01 04:39:00,40.4,38.5,30.09,WSW,238,0.0,2.0,93,0.00,,,0.00,Wunderground v.1.15,2014-09-01 11:39:00,
2014-09-01 04:45:00,40.3,38.2,30.09,WSW,238,0.0,2.0,92,0.00,,,0.00,Wunderground v.1.15,2014-09-01 11:45:00,
2014-09-01 04:51:00,40.0,37.9,30.09,West,263,0.0,2.0,92,0.00,,,0.00,Wunderground v.1.15,2014-09-01 11:51:00,
2014-09-01 04:57:00,39.8,37.4,30.09,West,264,0.0,2.0,91,0.00,,,0.00,Wunderground v.1.15,2014-09-01 11:57:00,
2014-09-01 05:02:00,39.9,37.8,30.09,West,264,0.0,2.0,92,0.00,,,0.00,Wunderground v.1.15,2014-09-01 12:02:00,
2014-09-01 05:08:00,40.2,38.1,30.09,West,264,0.0,2.0,92,0.00,,,0.00,Wunderground v.1.15,2014-09-01 12:08:00,
2014-09-01 05:14:00,39.9,37.5,30.09,West,264,0.0,2.0,91,0.00,,,0.00,Wunderground v.1.15,2014-09-01 12:14:00,
2014-09-01 05:20:00,39.9,37.8,30.09,West,264,0.0,2.0,92,0.00,,,0.00,Wunderground v.1.15,2014-09-01 12:20:00,
2014-09-01 05:26:00,39.6,37.2,30.09,West,266,0.0,2.0,91,0.00,,,0.00,Wunderground v.1.15,2014-09-01 12:26:00,
2014-09-01 05:32:00,39.6,37.5,30.09,West,266,0.0,2.0,92,0.00,,,0.00,Wunderground v.1.15,2014-09-01 12:32:00,
2014-09-01 05:37:00,40.0,37.9,30.09,West,266,0.0,2.0,92,0.00,,,0.00,Wunderground v.1.15,2014-09-01 12:37:00,
2014-09-01 05:42:00,39.9,37.5,30.09,West,266,0.0,2.0,91,0.00,,,0.00,Wunderground v.1.15,2014-09-01 12:42:00,
2014-09-01 05:48:00,39.9,37.5,30.09,West,264,0.0,2.0,91,0.00,,,0.00,Wunderground v.1.15,2014-09-01 12:48:00,
2014-09-01 05:54:00,39.7,37.0,30.09,West,264,0.0,2.0,90,0.00,,,0.00,Wunderground v.1.15,2014-09-01 12:54:00,
2014-09-01 06:00:00,39.8,37.4,30.09,West,264,0.0,2.0,91,0.00,,,0.00,Wunderground v.1.15,2014-09-01 13:00:00,
2014-09-01 06:06:00,39.5,36.5,30.09,West,264,0.0,2.0,89,0.00,,,0.00,Wunderground v.1.15,2014-09-01 13:06:00,
2014-09-01 06:11:00,39.0,36.3,30.09,West,266,0.0,2.0,90,0.00,,,0.00,Wunderground v.1.15,2014-09-01 13:11:00,
2014-09-01 06:17:00,38.7,36.3,30.09,West,264,0.0,2.0,91,0.00,,,0.00,Wunderground v.1.15,2014-09-01 13:17:00,
2014-09-01 06:23:00,38.4,36.3,30.09,West,264,0.0,2.0,92,0.00,,,0.00,Wunderground v.1.15,2014-09-01 13:23:00,
2014-09-01 06:28:00,38.5,36.4,30.10,West,264,0.0,2.0,92,0.00,,,0.00,Wunderground v.1.15,2014-09-01 13:28:00,
2014-09-01 06:34:00,38.5,36.4,30.10,West,264,0.0,2.0,92,0.00,,,0.00,Wunderground v.1.15,2014-09-01 13:34:00,
2014-09-01 06:40:00,38.7,36.9,30.10,West,264,0.0,2.0,93,0.00,,,0.00,Wunderground v.1.15,2014-09-01 13:40:00,
2014-09-01 06:46:00,39.1,37.2,30.10,West,264,0.0,2.0,93,0.00,,,0.00,Wunderground v.1.15,2014-09-01 13:46:00,
2014-09-01 06:51:00,39.3,37.2,30.10,West,264,0.0,2.0,92,0.00,,,0.00,Wunderground v.1.15,2014-09-01 13:51:00,
2014-09-01 06:57:00,38.7,36.3,30.10,West,264,0.0,2.0,91,0.00,,,0.00,Wunderground v.1.15,2014-09-01 13:57:00,
2014-09-01 07:03:00,38.2,36.1,30.11,West,264,0.0,2.0,92,0.00,,,0.00,Wunderground v.1.15,2014-09-01 14:03:00,
2014-09-01 07:09:00,37.9,35.8,30.11,SW,222,0.0,2.0,92,0.00,,,0.00,Wunderground v.1.15,2014-09-01 14:09:00,
2014-09-01 07:14:00,37.9,36.1,30.11,SW,228,0.0,2.0,93,0.00,,,0.00,Wunderground v.1.15,2014-09-01 14:14:00,
2014-09-01 07:20:00,38.2,36.4,30.11,SW,228,0.0,2.0,93,0.00,,,0.00,Wunderground v.1.15,2014-09-01 14:20:00,
2014-09-01 07:26:00,38.8,37.2,30.11,SW,228,0.0,2.0,94,0.00,,,0.00,Wunderground v.1.15,2014-09-01 14:26:00,
2014-09-01 07:32:00,39.6,38.0,30.11,SW,228,0.0,2.0,94,0.00,,,0.00,Wunderground v.1.15,2014-09-01 14:32:00,
2014-09-01 07:38:00,40.7,39.4,30.11,SW,228,0.0,2.0,95,0.00,,,0.00,Wunderground v.1.15,2014-09-01 14:38:00,
2014-09-01 07:44:00,41.9,40.3,30.11,SW,228,0.0,2.0,94,0.00,,,0.00,Wunderground v.1.15,2014-09-01 14:44:00,
2014-09-01 07:50:00,42.8,41.2,30.11,SW,228,0.0,2.0,94,0.00,,,0.00,Wunderground v.1.15,2014-09-01 14:50:00,
2014-09-01 07:56:00,44.3,42.7,30.11,SW,229,0.0,2.0,94,0.00,,,0.00,Wunderground v.1.15,2014-09-01 14:56:00,
2014-09-01 08:02:00,45.5,43.0,30.11,SW,229,0.0,2.0,91,0.00,,,0.00,Wunderground v.1.15,2014-09-01 15:02:00,
2014-09-01 08:08:00,46.0,42.9,30.11,SW,228,0.0,2.0,89,0.00,,,0.00,Wunderground v.1.15,2014-09-01 15:08:00,
2014-09-01 08:13:00,46.6,43.2,30.12,SW,227,0.0,2.0,88,0.00,,,0.00,Wunderground v.1.15,2014-09-01 15:13:00,
2014-09-01 08:20:00,47.4,43.4,30.11,SW,228,0.0,2.0,86,0.00,,,0.00,Wunderground v.1.15,2014-09-01 15:20:00,
2014-09-01 08:26:00,48.3,43.7,30.11,SW,228,0.0,2.0,84,0.00,,,0.00,Wunderground v.1.15,2014-09-01 15:26:00,
2014-09-01 08:32:00,49.1,43.8,30.11,SW,228,0.0,2.0,82,0.00,,,0.00,Wunderground v.1.15,2014-09-01 15:32:00,
2014-09-01 08:38:00,49.9,44.0,30.11,SW,228,0.0,2.0,80,0.00,,,0.00,Wunderground v.1.15,2014-09-01 15:38:00,
2014-09-01 08:44:00,50.5,44.2,30.11,WSW,250,0.0,2.0,79,0.00,,,0.00,Wunderground v.1.15,2014-09-01 15:44:00,
2014-09-01 08:50:00,52.6,45.2,30.11,WSW,250,0.0,2.0,76,0.00,,,0.00,Wunderground v.1.15,2014-09-01 15:50:00,
2014-09-01 08:55:00,54.5,46.4,30.11,SSE,165,0.0,2.0,74,0.00,,,0.00,Wunderground v.1.15,2014-09-01 15:55:00,
2014-09-01 09:01:00,55.7,46.4,30.11,SW,226,0.0,2.0,71,0.00,,,0.00,Wunderground v.1.15,2014-09-01 16:01:00,
2014-09-01 09:07:00,56.0,45.6,30.11,SW,226,0.0,2.0,68,0.00,,,0.00,Wunderground v.1.15,2014-09-01 16:07:00,
2014-09-01 09:13:00,56.8,45.2,30.10,SW,226,0.0,2.0,65,0.00,,,0.00,Wunderground v.1.15,2014-09-01 16:13:00,
2014-09-01 09:18:00,56.8,46.0,30.11,SW,222,0.0,2.0,67,0.00,,,0.00,Wunderground v.1.15,2014-09-01 16:18:00,
2014-09-01 09:23:00,57.4,46.9,30.10,SW,221,0.0,2.0,68,0.00,,,0.00,Wunderground v.1.15,2014-09-01 16:23:00,
2014-09-01 09:29:00,58.0,47.1,30.10,SSE,158,0.0,2.0,67,0.00,,,0.00,Wunderground v.1.15,2014-09-01 16:29:00,
2014-09-01 09:35:00,58.7,48.2,30.10,SE,128,0.0,2.0,68,0.00,,,0.00,Wunderground v.1.15,2014-09-01 16:35:00,
2014-09-01 09:41:00,59.0,48.1,30.10,SW,226,0.0,2.0,67,0.00,,,0.00,Wunderground v.1.15,2014-09-01 16:41:00,
2014-09-01 09:46:00,59.2,47.4,30.10,WSW,252,0.0,2.0,65,0.00,,,0.00,Wunderground v.1.15,2014-09-01 16:46:00,
2014-09-01 09:52:00,59.0,46.8,30.10,West,270,1.0,2.0,64,0.00,,,0.00,Wunderground v.1.15,2014-09-01 16:52:00,
2014-09-01 09:58:00,59.4,46.4,30.10,West,273,1.0,2.0,62,0.00,,,0.00,Wunderground v.1.15,2014-09-01 16:58:00,
2014-09-01 10:04:00,60.0,45.2,30.10,SW,226,0.0,2.0,58,0.00,,,0.00,Wunderground v.1.15,2014-09-01 17:04:00,
2014-09-01 10:09:00,61.1,45.3,30.10,SW,229,0.0,2.0,56,0.00,,,0.00,Wunderground v.1.15,2014-09-01 17:09:00,
2014-09-01 10:15:00,62.6,45.7,30.10,SW,231,0.0,2.0,54,0.00,,,0.00,Wunderground v.1.15,2014-09-01 17:15:00,
2014-09-01 10:21:00,64.1,47.1,30.09,West,264,0.0,2.0,54,0.00,,,0.00,Wunderground v.1.15,2014-09-01 17:21:00,
2014-09-01 10:27:00,64.3,47.8,30.09,SSW,211,0.0,2.0,55,0.00,,,0.00,Wunderground v.1.15,2014-09-01 17:27:00,
2014-09-01 10:33:00,64.9,47.9,30.09,SSW,198,0.0,2.0,54,0.00,,,0.00,Wunderground v.1.15,2014-09-01 17:33:00,
2014-09-01 10:39:00,65.6,48.0,30.08,SE,138,0.0,2.0,53,0.00,,,0.00,Wunderground v.1.15,2014-09-01 17:39:00,
2014-09-01 10:46:00,66.7,49.0,30.08,SW,215,0.0,2.0,53,0.00,,,0.00,Wunderground v.1.15,2014-09-01 17:46:00,
2014-09-01 10:52:00,67.1,48.4,30.08,SSE,148,0.0,2.0,51,0.00,,,0.00,Wunderground v.1.15,2014-09-01 17:52:00,
2014-09-01 10:57:00,67.6,46.6,30.08,WSW,248,1.0,2.0,47,0.00,,,0.00,Wunderground v.1.15,2014-09-01 17:57:00,
2014-09-01 11:03:00,68.1,49.8,30.08,WSW,245,1.0,2.0,52,0.00,,,0.00,Wunderground v.1.15,2014-09-01 18:03:00,
2014-09-01 11:09:00,68.4,49.6,30.07,West,280,0.0,2.0,51,0.00,,,0.00,Wunderground v.1.15,2014-09-01 18:09:00,
2014-09-01 11:15:00,69.9,48.7,30.07,South,191,0.0,2.0,47,0.00,,,0.00,Wunderground v.1.15,2014-09-01 18:15:00,
2014-09-01 11:20:00,70.6,50.0,30.07,SW,226,0.0,2.0,48,0.00,,,0.00,Wunderground v.1.15,2014-09-01 18:20:00,
2014-09-01 11:26:00,71.9,50.0,30.07,ESE,115,0.0,2.0,46,0.00,,,0.00,Wunderground v.1.15,2014-09-01 18:26:00,
2014-09-01 11:32:00,72.2,50.3,30.06,ESE,121,0.0,4.0,46,0.00,,,0.00,Wunderground v.1.15,2014-09-01 18:32:00,
2014-09-01 11:38:00,72.1,53.5,30.06,SSE,152,1.0,4.0,52,0.00,,,0.00,Wunderground v.1.15,2014-09-01 18:38:00,
2014-09-01 11:43:00,72.7,51.3,30.06,SSW,200,1.0,2.0,47,0.00,,,0.00,Wunderground v.1.15,2014-09-01 18:43:00,
2014-09-01 11:49:00,73.0,51.0,30.06,SW,224,1.0,2.0,46,0.00,,,0.00,Wunderground v.1.15,2014-09-01 18:49:00,
2014-09-01 11:55:00,73.5,50.9,30.06,ESE,103,1.0,3.0,45,0.00,,,0.00,Wunderground v.1.15,2014-09-01 18:55:00,
2014-09-01 12:01:00,73.5,49.0,30.05,SW,226,2.0,2.0,42,0.00,,,0.00,Wunderground v.1.15,2014-09-01 19:01:00,
2014-09-01 12:06:00,74.0,48.1,30.05,SW,222,1.0,2.0,40,0.00,,,0.00,Wunderground v.1.15,2014-09-01 19:06:00,
2014-09-01 12:12:00,75.3,47.9,30.05,West,280,0.0,2.0,38,0.00,,,0.00,Wunderground v.1.15,2014-09-01 19:12:00,
2014-09-01 12:18:00,76.6,49.8,30.04,West,280,0.0,2.0,39,0.00,,,0.00,Wunderground v.1.15,2014-09-01 19:18:00,
2014-09-01 12:23:00,76.3,48.8,30.04,SW,226,0.0,2.0,38,0.00,,,0.00,Wunderground v.1.15,2014-09-01 19:23:00,
2014-09-01 12:29:00,76.7,49.9,30.04,West,259,0.0,2.0,39,0.00,,,0.00,Wunderground v.1.15,2014-09-01 19:29:00,
2014-09-01 12:35:00,77.2,52.3,30.03,SSE,167,0.0,2.0,42,0.00,,,0.00,Wunderground v.1.15,2014-09-01 19:35:00,
2014-09-01 12:41:00,78.5,52.2,30.03,SW,228,0.0,2.0,40,0.00,,,0.00,Wunderground v.1.15,2014-09-01 19:41:00,
2014-09-01 12:46:00,78.5,51.5,30.03,SSW,202,1.0,2.0,39,0.00,,,0.00,Wunderground v.1.15,2014-09-01 19:46:00,
2014-09-01 12:52:00,78.3,48.4,30.02,West,269,2.0,3.0,35,0.00,,,0.00,Wunderground v.1.15,2014-09-01 19:52:00,
2014-09-01 12:57:00,78.8,54.4,30.02,SE,138,1.0,3.0,43,0.00,,,0.00,Wunderground v.1.15,2014-09-01 19:57:00,
2014-09-01 13:03:00,79.6,52.5,30.02,South,188,1.0,2.0,39,0.00,,,0.00,Wunderground v.1.15,2014-09-01 20:03:00,
2014-09-01 13:08:00,79.5,48.7,30.02,East,89,1.0,3.0,34,0.00,,,0.00,Wunderground v.1.15,2014-09-01 20:08:00,
2014-09-01 13:14:00,79.4,50.9,30.01,SSW,195,2.0,3.0,37,0.00,,,0.00,Wunderground v.1.15,2014-09-01 20:14:00,
2014-09-01 13:19:00,79.6,48.0,30.01,SW,224,2.0,3.0,33,0.00,,,0.00,Wunderground v.1.15,2014-09-01 20:19:00,
2014-09-01 13:25:00,80.4,47.8,30.01,SE,144,1.0,2.0,32,0.00,,,0.00,Wunderground v.1.15,2014-09-01 20:25:00,
2014-09-01 13:31:00,81.4,51.1,30.00,SSW,197,1.0,2.0,35,0.00,,,0.00,Wunderground v.1.15,2014-09-01 20:31:00,
2014-09-01 13:36:00,81.8,47.3,30.00,SE,146,1.0,2.0,30,0.00,,,0.00,Wunderground v.1.15,2014-09-01 20:36:00,
2014-09-01 13:42:00,82.8,49.1,30.00,SW,236,1.0,2.0,31,0.00,,,0.00,Wunderground v.1.15,2014-09-01 20:42:00,
2014-09-01 13:48:00,82.7,51.5,29.99,WSW,250,0.0,2.0,34,0.00,,,0.00,Wunderground v.1.15,2014-09-01 20:48:00,
2014-09-01 13:53:00,82.7,48.1,29.99,South,182,0.0,2.0,30,0.00,,,0.00,Wunderground v.1.15,2014-09-01 20:53:00,
2014-09-01 13:58:00,83.6,50.6,29.99,SSW,211,0.0,2.0,32,0.00,,,0.00,Wunderground v.1.15,2014-09-01 20:58:00,
2014-09-01 14:03:00,84.2,47.6,29.99,NE,50,0.0,2.0,28,0.00,,,0.00,Wunderground v.1.15,2014-09-01 21:03:00,